アピア の空港の天気 - METARとTAF

ファレオロ国際空港(サモア) ( NSFA / APW ) - サモア アピア
飛行場実況気象(Metar)
観測時間01/23 17:00 WSDT (01/23 03:00 UTC)
風向・風速北 4m/s
視程10km以上
天気現象
全天の4割程度の雲 雲底高度 610m
全天を覆う雲 雲底高度 3960m
気温29℃
湿度74%
気圧1005hPa
METARNSFA 230300Z 01008KT 9999 SCT020 OVC130 29/24 Q1005
過去の天気等 Google飛行場航空写真 Wunderground天気予報

過去48時間のMETAR

飛行場予報(TAF)
発表時間: 1/23 13:21 WSDT (1/22 23:21 UTC)
予報対象時間: 23日14時 WSDT ~ 24日14時 WSDT
風向・風速北東 4m/s
視程10km以上
全天の4割程度の雲 雲底高度 670m
全天の4割程度の雲 雲底高度 1,400m
全天を覆う雲 雲底高度 3,050m
23日14時 WSDT ~ 24日2時 WSDT に一時的に
視程3,000m
天気現象雷雨
全天の8割程度の雲 雲底高度 460m
少しの積乱雲 雲底高度 550m
TAF NSFA 222321Z 2300/2324 05008KT 9999 SCT022 SCT046 OVC100
TEMPO 2300/2312 3000 TSRA BKN015 FEW018CB